sensor_id;sensor_type;location;lat;lon;timestamp;temperature;humidity
10812;DHT22;5458;51.496;7.334;2023-03-01T00:01:05;2.10;93.30
10812;DHT22;5458;51.496;7.334;2023-03-01T00:03:31;2.10;93.30
10812;DHT22;5458;51.496;7.334;2023-03-01T00:05:57;2.10;93.30
10812;DHT22;5458;51.496;7.334;2023-03-01T00:08:22;2.10;93.60
10812;DHT22;5458;51.496;7.334;2023-03-01T00:10:48;2.10;93.60
10812;DHT22;5458;51.496;7.334;2023-03-01T00:13:13;2.00;93.60
10812;DHT22;5458;51.496;7.334;2023-03-01T00:15:40;2.00;93.90
10812;DHT22;5458;51.496;7.334;2023-03-01T00:18:07;2.00;94.00
10812;DHT22;5458;51.496;7.334;2023-03-01T00:20:34;1.90;94.00
10812;DHT22;5458;51.496;7.334;2023-03-01T00:22:59;1.90;94.10
10812;DHT22;5458;51.496;7.334;2023-03-01T00:25:25;1.90;94.10
10812;DHT22;5458;51.496;7.334;2023-03-01T00:27:50;1.90;94.30
10812;DHT22;5458;51.496;7.334;2023-03-01T00:30:16;1.80;94.20
10812;DHT22;5458;51.496;7.334;2023-03-01T00:32:42;1.80;93.90
10812;DHT22;5458;51.496;7.334;2023-03-01T00:35:08;1.80;93.90
10812;DHT22;5458;51.496;7.334;2023-03-01T00:37:33;1.80;94.00
10812;DHT22;5458;51.496;7.334;2023-03-01T00:39:59;1.80;94.20
10812;DHT22;5458;51.496;7.334;2023-03-01T00:42:24;1.70;94.40
10812;DHT22;5458;51.496;7.334;2023-03-01T00:44:50;1.70;94.40
10812;DHT22;5458;51.496;7.334;2023-03-01T00:47:15;1.70;94.50
10812;DHT22;5458;51.496;7.334;2023-03-01T00:49:41;1.70;94.60
10812;DHT22;5458;51.496;7.334;2023-03-01T00:52:06;1.60;94.50
10812;DHT22;5458;51.496;7.334;2023-03-01T00:54:32;1.60;94.70
10812;DHT22;5458;51.496;7.334;2023-03-01T00:56:57;1.50;94.70
10812;DHT22;5458;51.496;7.334;2023-03-01T00:59:23;1.50;94.70
10812;DHT22;5458;51.496;7.334;2023-03-01T01:01:49;1.50;94.80
10812;DHT22;5458;51.496;7.334;2023-03-01T01:04:14;1.50;94.80
10812;DHT22;5458;51.496;7.334;2023-03-01T01:06:43;1.50;94.90
10812;DHT22;5458;51.496;7.334;2023-03-01T01:09:11;1.50;95.00
10812;DHT22;5458;51.496;7.334;2023-03-01T01:11:44;1.50;94.90
10812;DHT22;5458;51.496;7.334;2023-03-01T01:14:10;1.40;95.00
10812;DHT22;5458;51.496;7.334;2023-03-01T01:16:35;1.40;95.10
10812;DHT22;5458;51.496;7.334;2023-03-01T01:19:01;1.40;95.10
10812;DHT22;5458;51.496;7.334;2023-03-01T01:21:27;1.40;95.20
10812;DHT22;5458;51.496;7.334;2023-03-01T01:23:54;1.40;95.20
10812;DHT22;5458;51.496;7.334;2023-03-01T01:28:45;1.30;95.30
10812;DHT22;5458;51.496;7.334;2023-03-01T01:31:11;1.30;95.30
10812;DHT22;5458;51.496;7.334;2023-03-01T01:33:37;1.30;95.40
10812;DHT22;5458;51.496;7.334;2023-03-01T01:36:04;1.30;95.40
10812;DHT22;5458;51.496;7.334;2023-03-01T01:38:30;1.30;95.50
10812;DHT22;5458;51.496;7.334;2023-03-01T01:40:56;1.30;95.60
10812;DHT22;5458;51.496;7.334;2023-03-01T01:43:31;1.30;95.60
10812;DHT22;5458;51.496;7.334;2023-03-01T01:46:26;1.20;95.50
10812;DHT22;5458;51.496;7.334;2023-03-01T01:49:05;1.20;95.40
10812;DHT22;5458;51.496;7.334;2023-03-01T01:51:38;1.20;95.60
10812;DHT22;5458;51.496;7.334;2023-03-01T01:54:27;1.20;95.60
10812;DHT22;5458;51.496;7.334;2023-03-01T01:57:00;1.20;95.50
10812;DHT22;5458;51.496;7.334;2023-03-01T01:59:27;1.20;95.60
10812;DHT22;5458;51.496;7.334;2023-03-01T02:01:54;1.20;95.70
10812;DHT22;5458;51.496;7.334;2023-03-01T02:04:20;1.20;95.70
10812;DHT22;5458;51.496;7.334;2023-03-01T02:07:09;1.10;95.60
10812;DHT22;5458;51.496;7.334;2023-03-01T02:09:36;1.20;95.70
10812;DHT22;5458;51.496;7.334;2023-03-01T02:12:02;1.10;95.50
10812;DHT22;5458;51.496;7.334;2023-03-01T02:14:29;1.10;95.50
10812;DHT22;5458;51.496;7.334;2023-03-01T02:16:55;1.00;95.70
10812;DHT22;5458;51.496;7.334;2023-03-01T02:22:27;0.90;95.90
10812;DHT22;5458;51.496;7.334;2023-03-01T02:27:36;0.90;96.10
10812;DHT22;5458;51.496;7.334;2023-03-01T02:30:04;0.80;96.10
10812;DHT22;5458;51.496;7.334;2023-03-01T02:32:30;0.80;96.10
10812;DHT22;5458;51.496;7.334;2023-03-01T02:34:56;0.80;96.30
10812;DHT22;5458;51.496;7.334;2023-03-01T02:37:23;0.80;96.40
10812;DHT22;5458;51.496;7.334;2023-03-01T02:39:55;0.70;96.40
10812;DHT22;5458;51.496;7.334;2023-03-01T02:42:28;0.70;96.50
10812;DHT22;5458;51.496;7.334;2023-03-01T02:44:55;0.70;96.30
10812;DHT22;5458;51.496;7.334;2023-03-01T02:47:21;0.70;96.40
10812;DHT22;5458;51.496;7.334;2023-03-01T02:49:47;0.70;96.30
10812;DHT22;5458;51.496;7.334;2023-03-01T02:52:45;0.70;96.30
10812;DHT22;5458;51.496;7.334;2023-03-01T02:55:16;0.80;96.50
10812;DHT22;5458;51.496;7.334;2023-03-01T02:57:46;0.80;96.50
10812;DHT22;5458;51.496;7.334;2023-03-01T03:00:19;0.80;96.50
10812;DHT22;5458;51.496;7.334;2023-03-01T03:02:47;0.80;96.40
10812;DHT22;5458;51.496;7.334;2023-03-01T03:05:17;0.80;96.30
10812;DHT22;5458;51.496;7.334;2023-03-01T03:07:44;0.80;96.40
10812;DHT22;5458;51.496;7.334;2023-03-01T03:10:16;0.70;96.30
10812;DHT22;5458;51.496;7.334;2023-03-01T03:12:48;0.70;96.30
10812;DHT22;5458;51.496;7.334;2023-03-01T03:15:14;0.70;96.60
10812;DHT22;5458;51.496;7.334;2023-03-01T03:17:41;0.80;96.40
10812;DHT22;5458;51.496;7.334;2023-03-01T03:20:09;0.70;96.30
10812;DHT22;5458;51.496;7.334;2023-03-01T03:22:40;0.70;96.30
10812;DHT22;5458;51.496;7.334;2023-03-01T03:25:09;0.80;96.20
10812;DHT22;5458;51.496;7.334;2023-03-01T03:27:39;0.70;96.40
10812;DHT22;5458;51.496;7.334;2023-03-01T03:30:07;0.70;96.40
10812;DHT22;5458;51.496;7.334;2023-03-01T03:32:41;0.70;96.30
10812;DHT22;5458;51.496;7.334;2023-03-01T03:35:09;0.70;96.30
10812;DHT22;5458;51.496;7.334;2023-03-01T03:37:39;0.60;96.40
10812;DHT22;5458;51.496;7.334;2023-03-01T03:40:24;0.50;96.40
10812;DHT22;5458;51.496;7.334;2023-03-01T03:42:49;0.50;96.60
10812;DHT22;5458;51.496;7.334;2023-03-01T03:45:16;0.50;96.80
10812;DHT22;5458;51.496;7.334;2023-03-01T03:47:42;0.50;96.80
10812;DHT22;5458;51.496;7.334;2023-03-01T03:50:10;0.50;96.80
10812;DHT22;5458;51.496;7.334;2023-03-01T03:52:35;0.50;96.70
10812;DHT22;5458;51.496;7.334;2023-03-01T03:55:01;0.50;96.70
10812;DHT22;5458;51.496;7.334;2023-03-01T03:57:26;0.50;96.70
10812;DHT22;5458;51.496;7.334;2023-03-01T03:59:52;0.40;96.80
10812;DHT22;5458;51.496;7.334;2023-03-01T04:02:18;0.40;97.00
10812;DHT22;5458;51.496;7.334;2023-03-01T04:04:48;0.40;97.00
10812;DHT22;5458;51.496;7.334;2023-03-01T04:07:15;0.30;96.80
10812;DHT22;5458;51.496;7.334;2023-03-01T04:09:42;0.30;97.00
10812;DHT22;5458;51.496;7.334;2023-03-01T04:12:08;0.30;97.30
10812;DHT22;5458;51.496;7.334;2023-03-01T04:14:34;0.30;97.30
10812;DHT22;5458;51.496;7.334;2023-03-01T04:16:59;0.30;97.10
10812;DHT22;5458;51.496;7.334;2023-03-01T04:19:25;0.30;97.10
10812;DHT22;5458;51.496;7.334;2023-03-01T04:21:52;0.20;97.10
10812;DHT22;5458;51.496;7.334;2023-03-01T04:24:18;0.20;97.30
10812;DHT22;5458;51.496;7.334;2023-03-01T04:26:44;0.20;97.30
10812;DHT22;5458;51.496;7.334;2023-03-01T04:29:09;0.20;97.40
10812;DHT22;5458;51.496;7.334;2023-03-01T04:31:35;0.20;97.20
10812;DHT22;5458;51.496;7.334;2023-03-01T04:34:01;0.20;97.00
10812;DHT22;5458;51.496;7.334;2023-03-01T04:36:28;0.20;97.10
10812;DHT22;5458;51.496;7.334;2023-03-01T04:38:54;0.20;97.30
10812;DHT22;5458;51.496;7.334;2023-03-01T04:41:22;0.10;97.20
10812;DHT22;5458;51.496;7.334;2023-03-01T04:43:48;0.10;97.20
10812;DHT22;5458;51.496;7.334;2023-03-01T04:46:17;0.10;97.20
10812;DHT22;5458;51.496;7.334;2023-03-01T04:48:44;0.10;97.40
10812;DHT22;5458;51.496;7.334;2023-03-01T04:51:10;0.10;97.40
10812;DHT22;5458;51.496;7.334;2023-03-01T04:53:39;0.10;97.40
10812;DHT22;5458;51.496;7.334;2023-03-01T04:56:04;0.10;97.40
10812;DHT22;5458;51.496;7.334;2023-03-01T04:58:30;0.00;97.40
10812;DHT22;5458;51.496;7.334;2023-03-01T05:00:56;0.00;97.40
10812;DHT22;5458;51.496;7.334;2023-03-01T05:03:22;0.00;97.60
10812;DHT22;5458;51.496;7.334;2023-03-01T05:05:49;0.00;97.70
10812;DHT22;5458;51.496;7.334;2023-03-01T05:08:15;-0.10;97.60
10812;DHT22;5458;51.496;7.334;2023-03-01T05:10:50;-0.10;97.60
10812;DHT22;5458;51.496;7.334;2023-03-01T05:13:16;0.00;97.50
10812;DHT22;5458;51.496;7.334;2023-03-01T05:15:54;-0.10;97.60
10812;DHT22;5458;51.496;7.334;2023-03-01T05:18:21;-0.10;97.60
10812;DHT22;5458;51.496;7.334;2023-03-01T05:20:51;-0.10;97.70
10812;DHT22;5458;51.496;7.334;2023-03-01T05:23:17;-0.10;97.60
10812;DHT22;5458;51.496;7.334;2023-03-01T05:25:44;-0.10;97.60
10812;DHT22;5458;51.496;7.334;2023-03-01T05:28:12;-0.10;97.70
10812;DHT22;5458;51.496;7.334;2023-03-01T05:30:39;-0.10;97.70
10812;DHT22;5458;51.496;7.334;2023-03-01T05:33:05;-0.20;97.80
10812;DHT22;5458;51.496;7.334;2023-03-01T05:35:36;-0.20;97.80
10812;DHT22;5458;51.496;7.334;2023-03-01T05:38:02;-0.20;98.00
10812;DHT22;5458;51.496;7.334;2023-03-01T05:40:28;-0.20;98.00
10812;DHT22;5458;51.496;7.334;2023-03-01T05:42:55;-0.30;97.80
10812;DHT22;5458;51.496;7.334;2023-03-01T05:45:23;-0.30;97.90
10812;DHT22;5458;51.496;7.334;2023-03-01T05:47:49;-0.30;97.90
10812;DHT22;5458;51.496;7.334;2023-03-01T05:52:45;-0.40;98.00
10812;DHT22;5458;51.496;7.334;2023-03-01T05:55:10;-0.40;98.00
10812;DHT22;5458;51.496;7.334;2023-03-01T05:57:36;-0.40;98.20
10812;DHT22;5458;51.496;7.334;2023-03-01T06:00:02;-0.40;98.00
10812;DHT22;5458;51.496;7.334;2023-03-01T06:02:28;-0.40;98.00
10812;DHT22;5458;51.496;7.334;2023-03-01T06:04:55;-0.40;98.00
10812;DHT22;5458;51.496;7.334;2023-03-01T06:07:20;-0.40;98.20
10812;DHT22;5458;51.496;7.334;2023-03-01T06:09:46;-0.40;98.20
10812;DHT22;5458;51.496;7.334;2023-03-01T06:12:12;-0.40;98.30
10812;DHT22;5458;51.496;7.334;2023-03-01T06:14:37;-0.40;98.30
10812;DHT22;5458;51.496;7.334;2023-03-01T06:17:03;-0.40;98.20
10812;DHT22;5458;51.496;7.334;2023-03-01T06:19:28;-0.40;98.20
10812;DHT22;5458;51.496;7.334;2023-03-01T06:21:54;-0.40;98.20
10812;DHT22;5458;51.496;7.334;2023-03-01T06:24:20;-0.40;98.20
10812;DHT22;5458;51.496;7.334;2023-03-01T06:26:45;-0.40;98.10
10812;DHT22;5458;51.496;7.334;2023-03-01T06:29:11;-0.30;98.20
10812;DHT22;5458;51.496;7.334;2023-03-01T06:31:36;-0.30;98.20
10812;DHT22;5458;51.496;7.334;2023-03-01T06:34:02;-0.30;97.90
10812;DHT22;5458;51.496;7.334;2023-03-01T06:36:28;-0.30;98.10
10812;DHT22;5458;51.496;7.334;2023-03-01T06:38:53;-0.30;98.10
10812;DHT22;5458;51.496;7.334;2023-03-01T06:41:19;-0.20;98.30
10812;DHT22;5458;51.496;7.334;2023-03-01T06:43:44;-0.10;98.40
10812;DHT22;5458;51.496;7.334;2023-03-01T06:46:10;0.00;98.60
10812;DHT22;5458;51.496;7.334;2023-03-01T06:48:35;0.20;98.60
10812;DHT22;5458;51.496;7.334;2023-03-01T06:51:01;0.30;98.40
10812;DHT22;5458;51.496;7.334;2023-03-01T06:53:28;0.30;97.70
10812;DHT22;5458;51.496;7.334;2023-03-01T06:55:57;0.40;97.40
10812;DHT22;5458;51.496;7.334;2023-03-01T06:58:24;0.40;97.40
10812;DHT22;5458;51.496;7.334;2023-03-01T07:00:49;0.50;97.30
10812;DHT22;5458;51.496;7.334;2023-03-01T07:03:15;0.40;97.10
10812;DHT22;5458;51.496;7.334;2023-03-01T07:05:41;0.40;97.00
10812;DHT22;5458;51.496;7.334;2023-03-01T07:08:06;0.40;97.30
10812;DHT22;5458;51.496;7.334;2023-03-01T07:10:32;0.50;97.40
10812;DHT22;5458;51.496;7.334;2023-03-01T07:12:58;0.70;97.30
10812;DHT22;5458;51.496;7.334;2023-03-01T07:15:25;0.70;97.00
10812;DHT22;5458;51.496;7.334;2023-03-01T07:17:51;0.80;97.20
10812;DHT22;5458;51.496;7.334;2023-03-01T07:20:20;0.90;97.20
10812;DHT22;5458;51.496;7.334;2023-03-01T07:22:54;0.90;97.00
10812;DHT22;5458;51.496;7.334;2023-03-01T07:25:20;0.90;97.10
10812;DHT22;5458;51.496;7.334;2023-03-01T07:27:50;1.20;97.30
10812;DHT22;5458;51.496;7.334;2023-03-01T07:30:16;1.30;96.90
10812;DHT22;5458;51.496;7.334;2023-03-01T07:32:41;1.50;96.70
10812;DHT22;5458;51.496;7.334;2023-03-01T07:35:07;1.60;96.70
10812;DHT22;5458;51.496;7.334;2023-03-01T07:37:33;2.60;96.80
10812;DHT22;5458;51.496;7.334;2023-03-01T07:39:59;3.90;94.50
10812;DHT22;5458;51.496;7.334;2023-03-01T07:42:24;5.00;92.50
10812;DHT22;5458;51.496;7.334;2023-03-01T07:44:50;6.70;90.30
10812;DHT22;5458;51.496;7.334;2023-03-01T07:47:15;9.10;82.00
10812;DHT22;5458;51.496;7.334;2023-03-01T07:49:41;11.50;70.10
10812;DHT22;5458;51.496;7.334;2023-03-01T07:52:06;13.60;60.00
10812;DHT22;5458;51.496;7.334;2023-03-01T07:54:32;15.30;54.90
10812;DHT22;5458;51.496;7.334;2023-03-01T07:56:57;16.50;49.10
10812;DHT22;5458;51.496;7.334;2023-03-01T07:59:23;17.60;46.30
10812;DHT22;5458;51.496;7.334;2023-03-01T08:01:54;18.10;43.10
10812;DHT22;5458;51.496;7.334;2023-03-01T08:04:21;18.70;42.50
10812;DHT22;5458;51.496;7.334;2023-03-01T08:06:46;19.30;40.50
10812;DHT22;5458;51.496;7.334;2023-03-01T08:09:13;19.70;39.10
10812;DHT22;5458;51.496;7.334;2023-03-01T08:11:38;20.10;38.50
10812;DHT22;5458;51.496;7.334;2023-03-01T08:14:05;20.70;37.30
10812;DHT22;5458;51.496;7.334;2023-03-01T08:16:30;21.30;36.40
10812;DHT22;5458;51.496;7.334;2023-03-01T08:18:57;21.80;35.10
10812;DHT22;5458;51.496;7.334;2023-03-01T08:21:26;21.70;34.80
10812;DHT22;5458;51.496;7.334;2023-03-01T08:23:52;21.40;34.10
10812;DHT22;5458;51.496;7.334;2023-03-01T08:26:19;21.80;34.30
10812;DHT22;5458;51.496;7.334;2023-03-01T08:28:46;22.20;33.40
10812;DHT22;5458;51.496;7.334;2023-03-01T08:31:21;22.70;33.60
10812;DHT22;5458;51.496;7.334;2023-03-01T08:33:50;23.30;32.80
10812;DHT22;5458;51.496;7.334;2023-03-01T08:36:23;23.90;32.40
10812;DHT22;5458;51.496;7.334;2023-03-01T08:38:49;24.50;30.90
10812;DHT22;5458;51.496;7.334;2023-03-01T08:41:15;24.20;30.10
10812;DHT22;5458;51.496;7.334;2023-03-01T08:43:41;23.90;29.70
10812;DHT22;5458;51.496;7.334;2023-03-01T08:46:07;23.60;30.10
10812;DHT22;5458;51.496;7.334;2023-03-01T08:48:32;23.60;29.80
10812;DHT22;5458;51.496;7.334;2023-03-01T08:51:07;23.70;29.50
10812;DHT22;5458;51.496;7.334;2023-03-01T08:53:33;23.70;29.60
10812;DHT22;5458;51.496;7.334;2023-03-01T08:56:00;24.00;29.90
10812;DHT22;5458;51.496;7.334;2023-03-01T08:58:28;23.90;29.00
10812;DHT22;5458;51.496;7.334;2023-03-01T09:00:54;23.80;29.30
10812;DHT22;5458;51.496;7.334;2023-03-01T09:03:22;23.70;28.70
10812;DHT22;5458;51.496;7.334;2023-03-01T09:05:47;24.10;29.30
10812;DHT22;5458;51.496;7.334;2023-03-01T09:08:14;24.70;28.90
10812;DHT22;5458;51.496;7.334;2023-03-01T09:10:40;24.70;28.70
10812;DHT22;5458;51.496;7.334;2023-03-01T09:13:05;24.50;28.50
10812;DHT22;5458;51.496;7.334;2023-03-01T09:15:31;24.30;28.60
10812;DHT22;5458;51.496;7.334;2023-03-01T09:17:57;23.90;28.60
10812;DHT22;5458;51.496;7.334;2023-03-01T09:20:24;23.30;28.60
10812;DHT22;5458;51.496;7.334;2023-03-01T09:22:50;22.80;28.70
10812;DHT22;5458;51.496;7.334;2023-03-01T09:25:15;22.20;29.10
10812;DHT22;5458;51.496;7.334;2023-03-01T09:27:41;21.50;29.60
10812;DHT22;5458;51.496;7.334;2023-03-01T09:30:07;21.60;30.00
10812;DHT22;5458;51.496;7.334;2023-03-01T09:32:33;21.30;30.00
10812;DHT22;5458;51.496;7.334;2023-03-01T09:34:59;21.60;29.80
10812;DHT22;5458;51.496;7.334;2023-03-01T09:37:31;21.70;29.70
10812;DHT22;5458;51.496;7.334;2023-03-01T09:39:57;21.60;29.40
10812;DHT22;5458;51.496;7.334;2023-03-01T09:42:23;21.30;29.30
10812;DHT22;5458;51.496;7.334;2023-03-01T09:44:59;20.50;29.60
10812;DHT22;5458;51.496;7.334;2023-03-01T09:47:29;18.30;30.80
10812;DHT22;5458;51.496;7.334;2023-03-01T09:55:54;12.90;37.90
10812;DHT22;5458;51.496;7.334;2023-03-01T10:00:54;11.70;41.80
10812;DHT22;5458;51.496;7.334;2023-03-01T10:03:43;11.50;41.90
10812;DHT22;5458;51.496;7.334;2023-03-01T10:06:19;11.50;43.10
10812;DHT22;5458;51.496;7.334;2023-03-01T10:09:05;11.40;42.40
10812;DHT22;5458;51.496;7.334;2023-03-01T10:11:36;11.00;42.10
10812;DHT22;5458;51.496;7.334;2023-03-01T10:14:15;10.90;43.00
10812;DHT22;5458;51.496;7.334;2023-03-01T10:16:53;10.70;42.60
10812;DHT22;5458;51.496;7.334;2023-03-01T10:19:30;10.20;43.10
10812;DHT22;5458;51.496;7.334;2023-03-01T10:22:03;9.90;44.70
10812;DHT22;5458;51.496;7.334;2023-03-01T10:24:32;9.60;44.90
10812;DHT22;5458;51.496;7.334;2023-03-01T10:27:12;9.30;45.60
10812;DHT22;5458;51.496;7.334;2023-03-01T10:29:51;9.20;46.10
10812;DHT22;5458;51.496;7.334;2023-03-01T10:32:19;8.70;46.60
10812;DHT22;5458;51.496;7.334;2023-03-01T10:34:47;8.80;47.70
10812;DHT22;5458;51.496;7.334;2023-03-01T10:37:17;9.10;47.60
10812;DHT22;5458;51.496;7.334;2023-03-01T10:40:04;9.00;47.10
10812;DHT22;5458;51.496;7.334;2023-03-01T10:42:35;9.10;47.60
10812;DHT22;5458;51.496;7.334;2023-03-01T10:48:19;9.20;47.90
10812;DHT22;5458;51.496;7.334;2023-03-01T10:50:50;9.00;48.30
10812;DHT22;5458;51.496;7.334;2023-03-01T10:53:36;8.90;48.40
10812;DHT22;5458;51.496;7.334;2023-03-01T10:56:09;8.90;49.10
10812;DHT22;5458;51.496;7.334;2023-03-01T10:58:36;8.70;48.70
10812;DHT22;5458;51.496;7.334;2023-03-01T11:01:27;8.50;50.50
10812;DHT22;5458;51.496;7.334;2023-03-01T11:04:14;8.60;50.60
10812;DHT22;5458;51.496;7.334;2023-03-01T11:06:41;8.70;50.10
10812;DHT22;5458;51.496;7.334;2023-03-01T11:09:23;8.70;49.80
10812;DHT22;5458;51.496;7.334;2023-03-01T11:11:57;8.70;50.00
10812;DHT22;5458;51.496;7.334;2023-03-01T11:14:27;8.30;50.00
10812;DHT22;5458;51.496;7.334;2023-03-01T11:17:02;8.10;51.20
10812;DHT22;5458;51.496;7.334;2023-03-01T11:19:28;8.20;51.90
10812;DHT22;5458;51.496;7.334;2023-03-01T11:22:02;8.30;51.70
10812;DHT22;5458;51.496;7.334;2023-03-01T11:24:40;8.20;51.50
10812;DHT22;5458;51.496;7.334;2023-03-01T11:27:34;8.20;51.50
10812;DHT22;5458;51.496;7.334;2023-03-01T11:33:48;8.50;52.40
10812;DHT22;5458;51.496;7.334;2023-03-01T11:36:46;8.50;52.30
10812;DHT22;5458;51.496;7.334;2023-03-01T11:42:15;8.70;52.40
10812;DHT22;5458;51.496;7.334;2023-03-01T11:44:46;8.80;51.90
10812;DHT22;5458;51.496;7.334;2023-03-01T11:47:33;8.60;51.90
10812;DHT22;5458;51.496;7.334;2023-03-01T11:55:25;8.50;51.90
10812;DHT22;5458;51.496;7.334;2023-03-01T12:20:32;8.30;52.40
10812;DHT22;5458;51.496;7.334;2023-03-01T12:34:15;8.20;53.80
10812;DHT22;5458;51.496;7.334;2023-03-01T12:39:45;8.30;54.00
10812;DHT22;5458;51.496;7.334;2023-03-01T12:50:31;8.30;53.70
10812;DHT22;5458;51.496;7.334;2023-03-01T12:52:59;8.40;54.10
10812;DHT22;5458;51.496;7.334;2023-03-01T12:55:33;8.30;53.50
10812;DHT22;5458;51.496;7.334;2023-03-01T13:01:16;8.20;53.50
10812;DHT22;5458;51.496;7.334;2023-03-01T13:06:50;8.00;53.30
10812;DHT22;5458;51.496;7.334;2023-03-01T13:11:45;8.10;53.30
10812;DHT22;5458;51.496;7.334;2023-03-01T13:16:49;8.30;54.00
10812;DHT22;5458;51.496;7.334;2023-03-01T13:19:20;8.30;53.60
10812;DHT22;5458;51.496;7.334;2023-03-01T13:21:47;8.50;53.30
10812;DHT22;5458;51.496;7.334;2023-03-01T13:24:35;8.40;52.00
10812;DHT22;5458;51.496;7.334;2023-03-01T13:27:22;8.30;52.10
10812;DHT22;5458;51.496;7.334;2023-03-01T13:29:58;8.30;51.60
10812;DHT22;5458;51.496;7.334;2023-03-01T13:32:35;8.30;51.20
10812;DHT22;5458;51.496;7.334;2023-03-01T13:37:52;8.30;53.10
10812;DHT22;5458;51.496;7.334;2023-03-01T13:42:49;8.40;53.30
10812;DHT22;5458;51.496;7.334;2023-03-01T13:45:32;8.40;53.80
10812;DHT22;5458;51.496;7.334;2023-03-01T13:48:03;8.40;52.90
10812;DHT22;5458;51.496;7.334;2023-03-01T13:50:37;8.30;53.10
10812;DHT22;5458;51.496;7.334;2023-03-01T13:53:06;8.40;53.80
10812;DHT22;5458;51.496;7.334;2023-03-01T13:55:42;8.50;53.50
10812;DHT22;5458;51.496;7.334;2023-03-01T13:58:27;8.60;53.40
10812;DHT22;5458;51.496;7.334;2023-03-01T14:01:29;8.60;52.10
10812;DHT22;5458;51.496;7.334;2023-03-01T14:03:55;8.60;52.00
10812;DHT22;5458;51.496;7.334;2023-03-01T14:06:26;8.60;52.90
10812;DHT22;5458;51.496;7.334;2023-03-01T14:09:17;8.60;53.00
10812;DHT22;5458;51.496;7.334;2023-03-01T14:12:13;8.60;53.40
10812;DHT22;5458;51.496;7.334;2023-03-01T14:14:46;8.60;52.70
10812;DHT22;5458;51.496;7.334;2023-03-01T14:17:32;8.60;52.80
10812;DHT22;5458;51.496;7.334;2023-03-01T14:20:00;8.60;52.90
10812;DHT22;5458;51.496;7.334;2023-03-01T14:22:30;8.70;52.90
10812;DHT22;5458;51.496;7.334;2023-03-01T14:25:29;8.70;51.60
10812;DHT22;5458;51.496;7.334;2023-03-01T14:28:20;8.60;51.00
10812;DHT22;5458;51.496;7.334;2023-03-01T14:30:50;8.60;50.50
10812;DHT22;5458;51.496;7.334;2023-03-01T14:33:36;8.50;50.40
10812;DHT22;5458;51.496;7.334;2023-03-01T14:36:10;8.50;50.90
10812;DHT22;5458;51.496;7.334;2023-03-01T14:38:47;8.30;50.40
10812;DHT22;5458;51.496;7.334;2023-03-01T14:41:14;8.20;50.30
10812;DHT22;5458;51.496;7.334;2023-03-01T14:43:46;8.10;50.50
10812;DHT22;5458;51.496;7.334;2023-03-01T14:46:38;8.20;51.50
10812;DHT22;5458;51.496;7.334;2023-03-01T14:49:16;8.30;51.80
10812;DHT22;5458;51.496;7.334;2023-03-01T14:51:51;8.50;52.20
10812;DHT22;5458;51.496;7.334;2023-03-01T14:54:48;8.50;51.60
10812;DHT22;5458;51.496;7.334;2023-03-01T14:57:22;8.50;51.70
10812;DHT22;5458;51.496;7.334;2023-03-01T14:59:53;8.50;51.50
10812;DHT22;5458;51.496;7.334;2023-03-01T15:02:22;8.40;51.80
10812;DHT22;5458;51.496;7.334;2023-03-01T15:04:55;8.50;52.10
10812;DHT22;5458;51.496;7.334;2023-03-01T15:07:45;8.50;51.30
10812;DHT22;5458;51.496;7.334;2023-03-01T15:10:29;8.50;50.90
10812;DHT22;5458;51.496;7.334;2023-03-01T15:12:55;8.40;50.90
10812;DHT22;5458;51.496;7.334;2023-03-01T15:15:34;8.40;50.90
10812;DHT22;5458;51.496;7.334;2023-03-01T15:18:21;8.40;51.20
10812;DHT22;5458;51.496;7.334;2023-03-01T15:20:49;8.40;51.10
10812;DHT22;5458;51.496;7.334;2023-03-01T15:25:47;8.50;51.00
10812;DHT22;5458;51.496;7.334;2023-03-01T15:28:20;8.40;51.10
10812;DHT22;5458;51.496;7.334;2023-03-01T15:33:46;8.40;51.60
10812;DHT22;5458;51.496;7.334;2023-03-01T15:38:58;8.30;52.70
10812;DHT22;5458;51.496;7.334;2023-03-01T15:43:52;8.20;51.60
10812;DHT22;5458;51.496;7.334;2023-03-01T15:46:29;8.10;51.00
10812;DHT22;5458;51.496;7.334;2023-03-01T15:49:00;8.10;50.70
10812;DHT22;5458;51.496;7.334;2023-03-01T15:51:36;8.00;50.00
10812;DHT22;5458;51.496;7.334;2023-03-01T15:54:06;7.90;50.40
10812;DHT22;5458;51.496;7.334;2023-03-01T15:56:32;7.90;51.20
10812;DHT22;5458;51.496;7.334;2023-03-01T15:59:00;7.90;51.60
10812;DHT22;5458;51.496;7.334;2023-03-01T16:01:26;8.00;51.80
10812;DHT22;5458;51.496;7.334;2023-03-01T16:03:52;7.90;51.30
10812;DHT22;5458;51.496;7.334;2023-03-01T16:06:19;7.90;51.60
10812;DHT22;5458;51.496;7.334;2023-03-01T16:08:44;7.90;52.00
10812;DHT22;5458;51.496;7.334;2023-03-01T16:11:18;7.90;52.30
10812;DHT22;5458;51.496;7.334;2023-03-01T16:13:45;7.90;52.30
10812;DHT22;5458;51.496;7.334;2023-03-01T16:16:11;7.90;51.90
10812;DHT22;5458;51.496;7.334;2023-03-01T16:18:41;7.90;51.80
10812;DHT22;5458;51.496;7.334;2023-03-01T16:21:08;7.80;51.80
10812;DHT22;5458;51.496;7.334;2023-03-01T16:23:36;7.80;51.50
10812;DHT22;5458;51.496;7.334;2023-03-01T16:26:01;7.80;52.00
10812;DHT22;5458;51.496;7.334;2023-03-01T16:28:27;7.70;52.50
10812;DHT22;5458;51.496;7.334;2023-03-01T16:30:53;7.70;52.50
10812;DHT22;5458;51.496;7.334;2023-03-01T16:33:18;7.70;53.10
10812;DHT22;5458;51.496;7.334;2023-03-01T16:35:44;7.60;52.60
10812;DHT22;5458;51.496;7.334;2023-03-01T16:38:10;7.60;52.50
10812;DHT22;5458;51.496;7.334;2023-03-01T16:40:36;7.50;51.80
10812;DHT22;5458;51.496;7.334;2023-03-01T16:43:01;7.40;52.10
10812;DHT22;5458;51.496;7.334;2023-03-01T16:45:32;7.40;52.50
10812;DHT22;5458;51.496;7.334;2023-03-01T16:48:00;7.40;52.60
10812;DHT22;5458;51.496;7.334;2023-03-01T16:50:26;7.30;52.80
10812;DHT22;5458;51.496;7.334;2023-03-01T16:52:51;7.30;52.80
10812;DHT22;5458;51.496;7.334;2023-03-01T16:55:17;7.20;52.80
10812;DHT22;5458;51.496;7.334;2023-03-01T16:57:43;7.20;53.10
10812;DHT22;5458;51.496;7.334;2023-03-01T17:00:10;7.20;53.10
10812;DHT22;5458;51.496;7.334;2023-03-01T17:02:36;7.10;53.20
10812;DHT22;5458;51.496;7.334;2023-03-01T17:05:03;7.00;53.30
10812;DHT22;5458;51.496;7.334;2023-03-01T17:07:30;7.10;53.70
10812;DHT22;5458;51.496;7.334;2023-03-01T17:09:59;7.10;53.60
10812;DHT22;5458;51.496;7.334;2023-03-01T17:12:25;7.10;53.60
10812;DHT22;5458;51.496;7.334;2023-03-01T17:14:50;7.00;53.80
10812;DHT22;5458;51.496;7.334;2023-03-01T17:17:16;7.00;53.70
10812;DHT22;5458;51.496;7.334;2023-03-01T17:19:41;7.00;53.80
10812;DHT22;5458;51.496;7.334;2023-03-01T17:22:09;6.90;53.70
10812;DHT22;5458;51.496;7.334;2023-03-01T17:24:37;6.90;53.90
10812;DHT22;5458;51.496;7.334;2023-03-01T17:27:03;6.90;53.80
10812;DHT22;5458;51.496;7.334;2023-03-01T17:29:29;6.80;53.90
10812;DHT22;5458;51.496;7.334;2023-03-01T17:31:55;6.70;53.60
10812;DHT22;5458;51.496;7.334;2023-03-01T17:34:21;6.70;53.60
10812;DHT22;5458;51.496;7.334;2023-03-01T17:36:47;6.60;53.40
10812;DHT22;5458;51.496;7.334;2023-03-01T17:39:15;6.60;53.30
10812;DHT22;5458;51.496;7.334;2023-03-01T17:41:41;6.50;53.10
10812;DHT22;5458;51.496;7.334;2023-03-01T17:44:07;6.60;53.30
10812;DHT22;5458;51.496;7.334;2023-03-01T17:46:32;6.50;53.70
10812;DHT22;5458;51.496;7.334;2023-03-01T17:48:58;6.50;52.90
10812;DHT22;5458;51.496;7.334;2023-03-01T17:51:24;6.50;52.90
10812;DHT22;5458;51.496;7.334;2023-03-01T17:53:49;6.40;52.90
10812;DHT22;5458;51.496;7.334;2023-03-01T17:56:15;6.40;53.00
10812;DHT22;5458;51.496;7.334;2023-03-01T17:58:41;6.40;52.90